createdAt,value
2017-10-06T00:02:09.822Z,2.70
2017-10-06T00:04:38.136Z,3.67
2017-10-06T00:07:06.583Z,3.03
2017-10-06T00:09:34.881Z,3.40
2017-10-06T00:12:03.120Z,3.30
2017-10-06T00:14:31.002Z,3.27
2017-10-06T00:16:58.465Z,2.57
2017-10-06T00:19:27.880Z,3.00
2017-10-06T00:21:56.096Z,3.03
2017-10-06T00:24:24.069Z,3.10
2017-10-06T00:26:51.513Z,2.70
2017-10-06T00:29:19.025Z,3.13
2017-10-06T00:31:47.249Z,2.80
2017-10-06T00:34:15.511Z,3.30
2017-10-06T00:36:42.969Z,3.00
2017-10-06T00:39:10.790Z,3.70
2017-10-06T00:41:38.236Z,3.10
2017-10-06T00:44:05.690Z,2.83
2017-10-06T00:46:33.145Z,2.90
2017-10-06T00:49:00.598Z,3.40
2017-10-06T00:51:28.063Z,3.00
2017-10-06T00:53:55.510Z,3.00
2017-10-06T00:56:23.770Z,3.10
2017-10-06T00:58:51.225Z,2.13
2017-10-06T01:01:19.044Z,2.60
2017-10-06T01:03:46.501Z,2.80
2017-10-06T01:06:13.961Z,3.10
2017-10-06T01:08:41.418Z,3.20
2017-10-06T01:11:08.866Z,3.73
2017-10-06T01:13:36.345Z,3.63
2017-10-06T01:16:03.805Z,3.73
2017-10-06T01:18:31.266Z,3.80
2017-10-06T01:20:58.734Z,4.10
2017-10-06T01:23:26.205Z,4.10
2017-10-06T01:25:53.653Z,3.37
2017-10-06T01:28:21.112Z,3.23
2017-10-06T01:30:48.578Z,3.20
2017-10-06T01:33:16.050Z,3.23
2017-10-06T01:35:44.312Z,3.30
2017-10-06T01:38:11.768Z,3.00
2017-10-06T01:40:39.231Z,3.67
2017-10-06T01:43:07.485Z,4.40
2017-10-06T01:45:34.942Z,3.50
2017-10-06T01:48:02.401Z,3.90
2017-10-06T01:50:29.861Z,3.50
2017-10-06T01:52:57.310Z,3.83
2017-10-06T01:55:24.765Z,3.53
2017-10-06T01:57:52.223Z,4.20
2017-10-06T02:00:19.694Z,4.47
2017-10-06T02:02:47.252Z,4.50
2017-10-06T02:05:14.705Z,3.70
2017-10-06T02:07:42.153Z,4.40
2017-10-06T02:10:10.091Z,3.60
2017-10-06T02:12:37.529Z,3.20
2017-10-06T02:15:05.022Z,3.00
2017-10-06T02:17:32.482Z,2.80
2017-10-06T02:19:59.942Z,2.93
2017-10-06T02:22:27.437Z,2.90
2017-10-06T02:24:54.918Z,2.93
2017-10-06T02:27:22.413Z,2.60
2017-10-06T02:29:49.873Z,2.67
2017-10-06T02:32:17.345Z,2.93
2017-10-06T02:34:44.804Z,3.00
2017-10-06T02:37:12.253Z,3.30
2017-10-06T02:39:39.712Z,2.83
2017-10-06T02:42:07.201Z,2.87
2017-10-06T02:44:35.477Z,3.37
2017-10-06T02:47:04.306Z,3.47
2017-10-06T02:49:32.532Z,3.17
2017-10-06T02:52:00.759Z,3.60
2017-10-06T02:54:28.202Z,2.83
2017-10-06T02:56:55.654Z,2.63
2017-10-06T02:59:23.122Z,3.10
2017-10-06T03:01:50.584Z,2.57
2017-10-06T03:04:18.045Z,2.70
2017-10-06T03:06:46.415Z,3.00
2017-10-06T03:09:13.871Z,2.90
2017-10-06T03:11:41.359Z,2.30
2017-10-06T03:14:09.420Z,2.80
2017-10-06T03:16:38.689Z,2.90
2017-10-06T03:19:06.350Z,2.80
2017-10-06T03:21:34.069Z,2.77
2017-10-06T03:24:01.622Z,3.47
2017-10-06T03:26:30.789Z,3.67
2017-10-06T03:28:58.243Z,4.30
2017-10-06T03:31:26.018Z,3.53
2017-10-06T03:33:53.473Z,4.00
2017-10-06T03:36:20.949Z,3.20
2017-10-06T03:38:49.245Z,3.40
2017-10-06T03:41:17.858Z,3.53
2017-10-06T03:43:46.237Z,3.00
2017-10-06T03:46:13.698Z,3.80
2017-10-06T03:48:42.084Z,3.93
2017-10-06T03:51:09.558Z,3.30
2017-10-06T03:53:37.011Z,3.70
2017-10-06T03:56:05.447Z,3.37
2017-10-06T03:58:33.740Z,2.97
2017-10-06T04:01:01.259Z,3.00
2017-10-06T04:03:29.698Z,2.80
2017-10-06T04:05:57.768Z,3.37
2017-10-06T04:08:26.137Z,3.60
2017-10-06T04:10:54.355Z,3.60
2017-10-06T04:13:22.581Z,3.40
2017-10-06T04:15:50.045Z,3.77
2017-10-06T04:18:17.782Z,3.30
2017-10-06T04:20:46.116Z,3.17
2017-10-06T04:23:14.349Z,3.80
2017-10-06T04:25:41.890Z,3.63
2017-10-06T04:28:09.350Z,3.77
2017-10-06T04:30:36.804Z,3.40
2017-10-06T04:33:04.261Z,3.50
2017-10-06T04:35:32.622Z,3.10
2017-10-06T04:38:00.981Z,3.73
2017-10-06T04:40:30.034Z,2.43
2017-10-06T04:42:58.306Z,2.50
2017-10-06T04:45:25.989Z,2.60
2017-10-06T04:47:53.449Z,3.07
2017-10-06T04:50:21.885Z,2.70
2017-10-06T04:52:49.343Z,3.10
2017-10-06T04:55:16.844Z,3.30
2017-10-06T04:57:44.986Z,5.40
2017-10-06T05:00:12.860Z,3.77
2017-10-06T05:02:41.057Z,2.90
2017-10-06T05:05:08.817Z,2.37
2017-10-06T05:07:36.265Z,2.10
2017-10-06T05:10:03.754Z,2.50
2017-10-06T05:12:31.984Z,3.13
2017-10-06T05:14:59.442Z,3.17
2017-10-06T05:17:27.387Z,3.23
2017-10-06T05:19:54.849Z,3.40
2017-10-06T05:22:22.541Z,3.60
2017-10-06T05:24:49.992Z,3.87
2017-10-06T05:27:17.661Z,3.30
2017-10-06T05:29:46.246Z,3.70
2017-10-06T05:32:15.343Z,3.33
2017-10-06T05:34:42.880Z,3.60
2017-10-06T05:37:10.378Z,3.37
2017-10-06T05:39:38.590Z,4.60
2017-10-06T05:42:06.041Z,3.50
2017-10-06T05:44:33.512Z,4.03
2017-10-06T05:47:01.033Z,4.00
2017-10-06T05:49:28.501Z,3.67
2017-10-06T05:51:55.945Z,3.67
2017-10-06T05:54:23.401Z,4.33
2017-10-06T05:56:50.861Z,3.33
2017-10-06T05:59:18.326Z,3.33
2017-10-06T06:01:45.787Z,3.17
2017-10-06T06:04:13.245Z,3.20
2017-10-06T06:06:40.700Z,3.57
2017-10-06T06:09:08.158Z,3.73
2017-10-06T06:11:35.629Z,3.40
2017-10-06T06:14:03.098Z,3.30
2017-10-06T06:16:30.549Z,3.13
2017-10-06T06:18:58.010Z,3.43
2017-10-06T06:21:25.469Z,4.00
2017-10-06T06:23:52.945Z,2.77
2017-10-06T06:26:20.465Z,3.20
2017-10-06T06:28:47.926Z,3.57
2017-10-06T06:31:15.374Z,3.20
2017-10-06T06:33:42.845Z,2.80
2017-10-06T06:36:10.306Z,2.87
2017-10-06T06:38:37.765Z,3.10
2017-10-06T06:41:05.217Z,2.40
2017-10-06T06:43:32.674Z,3.07
2017-10-06T06:46:00.129Z,2.90
2017-10-06T06:48:27.585Z,2.50
2017-10-06T06:50:55.041Z,3.17
2017-10-06T06:53:22.497Z,2.70
2017-10-06T06:55:49.961Z,2.70
2017-10-06T06:58:17.409Z,2.50
2017-10-06T07:00:44.875Z,2.90
2017-10-06T07:03:12.330Z,2.90
2017-10-06T07:05:39.810Z,3.20
2017-10-06T07:08:07.273Z,3.17
2017-10-06T07:10:35.504Z,2.97
2017-10-06T07:13:02.965Z,3.10
2017-10-06T07:15:30.426Z,3.23
2017-10-06T07:17:57.893Z,2.33
2017-10-06T07:20:25.373Z,3.20
2017-10-06T07:22:53.629Z,2.73
2017-10-06T07:25:21.095Z,2.53
2017-10-06T07:27:48.552Z,2.60
2017-10-06T07:30:16.011Z,3.73
2017-10-06T07:32:43.466Z,2.80
2017-10-06T07:35:10.923Z,2.80
2017-10-06T07:37:38.385Z,2.67
2017-10-06T07:40:06.648Z,3.00
2017-10-06T07:42:34.134Z,3.10
2017-10-06T07:45:01.585Z,3.03
2017-10-06T07:47:34.637Z,2.90
2017-10-06T07:50:02.093Z,2.60
2017-10-06T07:52:29.548Z,2.50
2017-10-06T07:54:57.009Z,2.27
2017-10-06T07:57:24.465Z,2.70
2017-10-06T07:59:51.930Z,2.80
2017-10-06T08:02:20.338Z,2.40
2017-10-06T08:04:47.812Z,2.37
2017-10-06T08:07:16.030Z,2.10
2017-10-06T08:09:43.492Z,2.47
2017-10-06T08:12:12.845Z,2.30
2017-10-06T08:14:40.301Z,2.37
2017-10-06T08:17:07.758Z,1.77
2017-10-06T08:19:35.212Z,2.40
2017-10-06T08:22:02.674Z,2.50
2017-10-06T08:24:30.148Z,2.40
2017-10-06T08:26:57.608Z,2.47
2017-10-06T08:29:25.059Z,3.60
2017-10-06T08:31:52.521Z,2.43
2017-10-06T08:34:19.978Z,2.07
2017-10-06T08:36:47.428Z,2.20
2017-10-06T08:39:14.881Z,2.80
2017-10-06T08:41:42.421Z,1.73
2017-10-06T08:44:09.875Z,2.23
2017-10-06T08:46:37.330Z,2.30
2017-10-06T08:49:04.768Z,2.30
2017-10-06T08:51:32.231Z,2.13
2017-10-06T08:53:59.676Z,1.60
2017-10-06T08:56:28.427Z,1.70
2017-10-06T08:58:55.881Z,1.50
2017-10-06T09:01:23.336Z,1.63
2017-10-06T09:03:50.795Z,1.37
2017-10-06T09:06:18.248Z,1.70
2017-10-06T09:08:45.692Z,1.50
2017-10-06T09:11:13.164Z,1.43
2017-10-06T09:13:40.621Z,1.47
2017-10-06T09:16:08.069Z,1.40
2017-10-06T09:18:35.521Z,1.50
2017-10-06T09:21:02.972Z,1.63
2017-10-06T09:23:30.428Z,1.37
2017-10-06T09:25:57.885Z,1.67
2017-10-06T09:28:26.565Z,1.87
2017-10-06T09:30:54.029Z,1.47
2017-10-06T09:33:21.472Z,1.50
2017-10-06T09:35:48.920Z,1.40
2017-10-06T09:38:16.677Z,1.50
2017-10-06T09:40:44.141Z,1.40
2017-10-06T09:43:11.592Z,1.33
2017-10-06T09:45:39.047Z,1.63
2017-10-06T09:48:07.538Z,1.30
2017-10-06T09:50:34.989Z,2.00
2017-10-06T09:53:02.441Z,2.20
2017-10-06T09:55:29.897Z,1.83
2017-10-06T09:57:57.356Z,1.57
2017-10-06T10:00:24.809Z,1.30
2017-10-06T10:02:52.276Z,1.40
2017-10-06T10:05:19.721Z,1.87
2017-10-06T10:07:47.184Z,1.87
2017-10-06T10:10:14.636Z,1.13
2017-10-06T10:12:42.092Z,2.00
2017-10-06T10:15:09.576Z,1.50
2017-10-06T10:17:37.028Z,1.37
2017-10-06T10:20:04.485Z,1.27
2017-10-06T10:22:31.961Z,1.43
2017-10-06T10:24:59.420Z,1.47
2017-10-06T10:27:26.870Z,1.50
2017-10-06T10:29:54.321Z,1.57
2017-10-06T10:32:21.780Z,1.00
2017-10-06T10:34:49.233Z,1.30
2017-10-06T10:37:16.688Z,1.00
2017-10-06T10:39:44.143Z,1.27
2017-10-06T10:42:11.600Z,1.10
2017-10-06T10:44:39.072Z,1.10
2017-10-06T10:47:06.513Z,1.53
2017-10-06T10:49:33.976Z,2.37
2017-10-06T10:52:01.432Z,1.20
2017-10-06T10:54:28.880Z,1.20
2017-10-06T10:56:56.543Z,1.50
2017-10-06T10:59:23.996Z,1.53
2017-10-06T11:01:51.452Z,1.60
2017-10-06T11:04:18.919Z,1.40
2017-10-06T11:06:46.382Z,1.57
2017-10-06T11:09:13.825Z,1.93
2017-10-06T11:11:41.273Z,1.60
2017-10-06T11:14:08.748Z,2.13
2017-10-06T11:16:36.195Z,2.40
2017-10-06T11:19:03.652Z,2.20
2017-10-06T11:21:31.107Z,1.93
2017-10-06T11:23:58.562Z,2.30
2017-10-06T11:26:26.016Z,2.10
2017-10-06T11:28:53.536Z,2.50
2017-10-06T11:31:20.996Z,2.00
2017-10-06T11:33:48.436Z,2.03
2017-10-06T11:36:15.893Z,2.53
2017-10-06T11:38:43.362Z,1.93
2017-10-06T11:41:10.836Z,2.37
2017-10-06T11:43:38.304Z,2.30
2017-10-06T11:46:05.757Z,2.83
2017-10-06T11:48:33.207Z,2.80
2017-10-06T11:51:00.671Z,2.77
2017-10-06T11:53:28.138Z,2.70
2017-10-06T11:55:55.601Z,2.40
2017-10-06T11:58:23.060Z,2.20
2017-10-06T12:00:50.524Z,2.33
2017-10-06T12:03:17.976Z,1.77
2017-10-06T12:05:45.412Z,2.53
2017-10-06T12:08:12.877Z,2.10
2017-10-06T12:10:40.347Z,2.50
2017-10-06T12:13:07.799Z,2.50
2017-10-06T12:15:35.244Z,2.43
2017-10-06T12:18:02.696Z,2.37
2017-10-06T12:20:30.152Z,2.63
2017-10-06T12:22:57.625Z,3.30
2017-10-06T12:25:25.069Z,2.40
2017-10-06T12:27:52.548Z,2.97
2017-10-06T12:30:20.770Z,2.80
2017-10-06T12:32:48.220Z,3.17
2017-10-06T12:35:15.675Z,3.73
2017-10-06T12:37:43.140Z,3.70
2017-10-06T12:40:10.585Z,3.67
2017-10-06T12:42:38.041Z,3.67
2017-10-06T12:45:05.500Z,3.97
2017-10-06T12:47:32.972Z,3.73
2017-10-06T12:50:00.431Z,3.53
2017-10-06T12:52:27.880Z,3.80
2017-10-06T12:54:55.337Z,4.07
2017-10-06T12:57:23.762Z,3.97
2017-10-06T12:59:51.221Z,3.10
2017-10-06T13:02:18.665Z,1.97
2017-10-06T13:04:46.117Z,2.10
2017-10-06T13:07:13.557Z,2.17
2017-10-06T13:09:41.923Z,1.90
2017-10-06T13:12:11.869Z,2.53
2017-10-06T13:26:14.858Z,2.40
2017-10-06T13:29:04.856Z,2.23
2017-10-06T13:31:32.618Z,2.57
2017-10-06T13:34:00.693Z,3.07
2017-10-06T13:36:35.790Z,3.43
2017-10-06T13:39:09.105Z,3.10
2017-10-06T13:41:36.622Z,3.23
2017-10-06T13:44:04.266Z,2.93
2017-10-06T13:46:32.576Z,2.90
2017-10-06T13:49:01.220Z,2.53
2017-10-06T13:51:28.754Z,3.00
2017-10-06T13:53:56.192Z,2.47
2017-10-06T13:56:23.940Z,2.60
2017-10-06T13:58:52.147Z,2.70
2017-10-06T14:01:19.611Z,2.70
2017-10-06T14:03:47.061Z,2.70
2017-10-06T14:06:14.517Z,2.30
2017-10-06T14:08:42.376Z,2.20
2017-10-06T14:11:09.869Z,2.80
2017-10-06T14:13:37.316Z,2.43
2017-10-06T14:16:04.774Z,2.33
2017-10-06T14:18:32.253Z,2.67
2017-10-06T14:20:59.700Z,2.73
2017-10-06T14:26:00.946Z,2.50
2017-10-06T14:28:28.397Z,2.97
2017-10-06T14:30:55.845Z,3.33
2017-10-06T14:33:23.317Z,3.97
2017-10-06T14:35:50.768Z,3.43
2017-10-06T14:38:18.220Z,3.90
2017-10-06T14:40:45.680Z,3.73
2017-10-06T14:43:13.154Z,4.20
2017-10-06T14:45:40.612Z,4.63
2017-10-06T14:48:08.068Z,4.60
2017-10-06T14:50:36.407Z,4.53
2017-10-06T14:53:03.876Z,5.37
2017-10-06T14:55:31.329Z,5.07
2017-10-06T14:57:58.800Z,5.43
2017-10-06T15:00:26.274Z,5.67
2017-10-06T15:02:53.713Z,5.60
2017-10-06T15:05:21.206Z,5.37
2017-10-06T15:07:48.639Z,5.13
2017-10-06T15:10:16.120Z,4.83
2017-10-06T15:12:43.613Z,6.30
2017-10-06T15:15:11.096Z,6.17
2017-10-06T15:17:38.566Z,6.00
2017-10-06T15:20:06.087Z,6.13
2017-10-06T15:22:35.732Z,5.40
2017-10-06T15:25:07.359Z,4.97
2017-10-06T15:27:37.339Z,4.73
2017-10-06T15:32:51.292Z,4.37
2017-10-06T15:35:20.833Z,4.60
2017-10-06T15:37:51.254Z,4.50
2017-10-06T15:40:18.814Z,5.43
2017-10-06T15:42:46.291Z,4.80
2017-10-06T15:45:13.736Z,4.50
2017-10-06T15:47:41.191Z,5.53
2017-10-06T15:50:08.633Z,5.80
2017-10-06T15:52:36.092Z,5.20
2017-10-06T15:55:03.548Z,4.20
2017-10-06T15:57:31.005Z,4.40
2017-10-06T15:59:58.461Z,4.50
2017-10-06T16:02:25.921Z,4.20
2017-10-06T16:04:55.290Z,3.87
2017-10-06T16:07:22.736Z,3.90
2017-10-06T16:09:50.181Z,3.73
2017-10-06T16:12:17.648Z,4.00
2017-10-06T16:14:45.865Z,3.90
2017-10-06T16:17:13.315Z,4.50
2017-10-06T16:19:40.776Z,3.90
2017-10-06T16:22:08.235Z,4.40
2017-10-06T16:24:35.688Z,3.90
2017-10-06T16:27:03.144Z,3.97
2017-10-06T16:29:30.608Z,4.10
2017-10-06T16:31:58.053Z,4.10
2017-10-06T16:34:25.508Z,4.00
2017-10-06T16:36:52.960Z,4.20
2017-10-06T16:39:20.416Z,3.60
2017-10-06T16:41:47.859Z,3.93
2017-10-06T16:44:15.308Z,3.83
2017-10-06T16:46:43.520Z,4.00
2017-10-06T16:49:10.980Z,8.17
2017-10-06T16:51:38.428Z,7.20
2017-10-06T16:54:05.900Z,4.47
2017-10-06T16:56:33.359Z,3.93
2017-10-06T16:59:00.812Z,4.20
2017-10-06T17:01:28.268Z,5.17
2017-10-06T17:03:55.715Z,4.83
2017-10-06T17:06:23.174Z,4.43
2017-10-06T17:08:50.616Z,4.70
2017-10-06T17:11:18.072Z,4.60
2017-10-06T17:13:45.524Z,5.00
2017-10-06T17:16:12.979Z,4.57
2017-10-06T17:18:40.430Z,5.00
2017-10-06T17:21:07.871Z,5.30
2017-10-06T17:23:35.324Z,5.43
2017-10-06T17:26:02.784Z,4.60
2017-10-06T17:28:30.232Z,4.40
2017-10-06T17:30:57.690Z,4.40
2017-10-06T17:33:25.900Z,4.10
2017-10-06T17:35:53.373Z,4.47
2017-10-06T17:38:20.828Z,3.63
2017-10-06T17:40:48.283Z,4.90
2017-10-06T17:43:15.741Z,4.70
2017-10-06T17:45:43.196Z,4.53
2017-10-06T17:48:10.656Z,4.90
2017-10-06T17:50:38.113Z,4.50
2017-10-06T17:53:05.568Z,4.77
2017-10-06T17:55:33.018Z,4.30
2017-10-06T17:58:00.481Z,4.30
2017-10-06T18:00:27.937Z,4.53
2017-10-06T18:02:55.396Z,4.17
2017-10-06T18:05:22.852Z,3.93
2017-10-06T18:07:50.314Z,4.20
2017-10-06T18:10:17.776Z,4.87
2017-10-06T18:12:45.230Z,4.70
2017-10-06T18:15:12.684Z,4.07
2017-10-06T18:17:40.152Z,4.20
2017-10-06T18:20:07.596Z,4.40
2017-10-06T18:22:35.043Z,4.10
2017-10-06T18:25:02.505Z,4.83
2017-10-06T18:27:29.957Z,4.00
2017-10-06T18:29:57.415Z,4.13
2017-10-06T18:32:24.863Z,8.87
2017-10-06T18:34:52.321Z,4.87
2017-10-06T18:37:19.777Z,4.30
2017-10-06T18:39:47.233Z,4.97
2017-10-06T18:42:14.682Z,4.27
2017-10-06T18:44:42.132Z,4.80
2017-10-06T18:47:09.580Z,5.20
2017-10-06T18:49:37.108Z,5.03
2017-10-06T18:52:05.317Z,5.60
2017-10-06T18:54:32.790Z,5.73
2017-10-06T18:57:00.237Z,5.80
2017-10-06T18:59:27.684Z,5.27
2017-10-06T19:01:55.132Z,5.20
2017-10-06T19:04:22.588Z,5.53
2017-10-06T19:06:50.053Z,6.10
2017-10-06T19:09:17.527Z,5.43
2017-10-06T19:11:44.977Z,5.30
2017-10-06T19:14:13.185Z,3.40
2017-10-06T19:16:40.640Z,5.27
2017-10-06T19:19:08.100Z,5.83
2017-10-06T19:21:36.320Z,5.37
2017-10-06T19:24:03.776Z,4.27
2017-10-06T19:26:31.236Z,7.50
2017-10-06T19:28:58.693Z,11.20
2017-10-06T19:31:26.153Z,4.97
2017-10-06T19:33:53.605Z,4.40
2017-10-06T19:36:21.061Z,3.90
2017-10-06T19:38:48.516Z,3.40
2017-10-06T19:41:15.968Z,3.80
2017-10-06T19:43:43.425Z,3.67
2017-10-06T19:46:10.920Z,4.10
2017-10-06T19:48:38.378Z,3.70
2017-10-06T19:51:05.832Z,3.90
2017-10-06T19:53:33.288Z,3.33
2017-10-06T19:56:00.745Z,3.30
2017-10-06T19:58:28.201Z,3.07
2017-10-06T20:00:55.668Z,3.67
2017-10-06T20:03:23.126Z,4.10
2017-10-06T20:05:50.597Z,3.10
2017-10-06T20:08:18.064Z,3.07
2017-10-06T20:10:46.276Z,2.90
2017-10-06T20:13:13.740Z,3.27
2017-10-06T20:15:41.196Z,2.63
2017-10-06T20:18:08.655Z,3.03
2017-10-06T20:20:36.100Z,3.47
2017-10-06T20:23:04.233Z,4.20
2017-10-06T20:25:31.679Z,3.47
2017-10-06T20:27:59.176Z,3.43
2017-10-06T20:30:27.468Z,3.57
2017-10-06T20:32:54.930Z,3.60
2017-10-06T20:35:23.075Z,3.50
2017-10-06T20:37:50.532Z,3.30
2017-10-06T20:40:17.999Z,2.73
2017-10-06T20:42:45.460Z,3.10
2017-10-06T20:45:12.931Z,2.70
2017-10-06T20:47:40.380Z,4.00
2017-10-06T20:50:07.836Z,2.80
2017-10-06T20:52:35.296Z,3.20
2017-10-06T20:55:02.771Z,2.90
2017-10-06T20:57:30.817Z,3.30
2017-10-06T20:59:58.305Z,3.00
2017-10-06T21:02:25.760Z,3.40
2017-10-06T21:04:53.216Z,2.97
2017-10-06T21:07:20.660Z,3.20
2017-10-06T21:09:48.116Z,2.77
2017-10-06T21:12:15.572Z,2.43
2017-10-06T21:14:43.040Z,2.30
2017-10-06T21:17:10.483Z,2.60
2017-10-06T21:19:37.940Z,2.37
2017-10-06T21:22:05.396Z,2.20
2017-10-06T21:24:32.861Z,2.07
2017-10-06T21:27:00.309Z,2.43
2017-10-06T21:29:27.765Z,2.10
2017-10-06T21:31:55.221Z,2.43
2017-10-06T21:34:22.679Z,2.27
2017-10-06T21:36:50.132Z,2.10
2017-10-06T21:39:17.588Z,2.40
2017-10-06T21:41:45.045Z,1.97
2017-10-06T21:44:12.500Z,2.00
2017-10-06T21:46:39.961Z,2.30
2017-10-06T21:49:07.415Z,2.10
2017-10-06T21:51:34.880Z,2.40
2017-10-06T21:54:02.332Z,2.13
2017-10-06T21:56:31.674Z,2.50
2017-10-06T21:58:59.116Z,2.60
2017-10-06T22:01:27.356Z,2.40
2017-10-06T22:03:54.836Z,2.40
2017-10-06T22:06:23.052Z,2.27
2017-10-06T22:08:50.525Z,2.50
2017-10-06T22:11:17.977Z,2.23
2017-10-06T22:13:45.507Z,2.50
2017-10-06T22:16:13.087Z,2.10
2017-10-06T22:18:41.090Z,2.47
2017-10-06T22:21:08.939Z,2.20
2017-10-06T22:23:37.212Z,2.10
2017-10-06T22:26:04.660Z,2.37
2017-10-06T22:28:32.124Z,2.33
2017-10-06T22:30:59.577Z,2.40
2017-10-06T22:33:27.040Z,3.13
2017-10-06T22:35:54.484Z,2.60
2017-10-06T22:38:21.939Z,2.27
2017-10-06T22:40:49.383Z,2.77
2017-10-06T22:43:16.852Z,2.23
2017-10-06T22:45:44.299Z,2.50
2017-10-06T22:48:11.728Z,2.20
2017-10-06T22:50:39.183Z,2.47
2017-10-06T22:53:07.498Z,2.47
2017-10-06T22:55:34.939Z,2.57
2017-10-06T22:58:02.368Z,2.80
2017-10-06T23:00:29.807Z,2.87
2017-10-06T23:02:58.020Z,2.40
2017-10-06T23:05:25.472Z,2.40
2017-10-06T23:07:52.907Z,2.80
2017-10-06T23:10:20.352Z,2.30
2017-10-06T23:12:48.558Z,2.93
2017-10-06T23:15:15.986Z,2.90
2017-10-06T23:17:43.415Z,2.30
2017-10-06T23:20:10.862Z,3.10
2017-10-06T23:22:38.299Z,2.80
2017-10-06T23:25:05.736Z,2.17
2017-10-06T23:27:33.170Z,2.60
2017-10-06T23:30:00.603Z,2.00
2017-10-06T23:32:28.050Z,2.90
2017-10-06T23:34:55.476Z,2.23
2017-10-06T23:37:22.919Z,3.20
2017-10-06T23:39:50.360Z,4.67
2017-10-06T23:42:17.806Z,5.53
2017-10-06T23:44:45.238Z,4.73
2017-10-06T23:47:12.678Z,3.10
2017-10-06T23:49:40.111Z,2.50
2017-10-06T23:52:07.555Z,3.13
2017-10-06T23:54:34.995Z,3.00
2017-10-06T23:57:02.442Z,2.90
2017-10-06T23:59:29.870Z,2.70
